createdAt,value
2018-12-30T00:01:03.887Z,6.30
2018-12-30T00:03:32.883Z,6.40
2018-12-30T00:06:02.217Z,6.50
2018-12-30T00:08:31.300Z,6.50
2018-12-30T00:10:59.930Z,6.50
2018-12-30T00:13:29.022Z,6.60
2018-12-30T00:15:57.635Z,6.70
2018-12-30T00:18:26.295Z,6.70
2018-12-30T00:20:54.922Z,6.70
2018-12-30T00:23:23.639Z,6.70
2018-12-30T00:25:52.170Z,6.70
2018-12-30T00:28:20.768Z,6.70
2018-12-30T00:30:49.342Z,6.70
2018-12-30T00:33:17.901Z,6.70
2018-12-30T00:35:46.900Z,6.70
2018-12-30T00:38:15.736Z,6.70
2018-12-30T00:40:44.299Z,6.80
2018-12-30T00:43:12.856Z,6.70
2018-12-30T00:45:41.539Z,6.70
2018-12-30T00:48:10.137Z,6.70
2018-12-30T00:50:39.001Z,6.70
2018-12-30T00:53:07.598Z,6.70
2018-12-30T00:55:36.240Z,6.80
2018-12-30T00:58:05.127Z,6.80
2018-12-30T01:00:33.735Z,6.80
2018-12-30T01:03:02.281Z,6.80
2018-12-30T01:05:30.872Z,6.90
2018-12-30T01:07:59.619Z,6.80
2018-12-30T01:10:28.195Z,6.80
2018-12-30T01:12:56.789Z,6.90
2018-12-30T01:15:25.369Z,6.90
2018-12-30T01:17:54.590Z,7.00
2018-12-30T01:20:23.429Z,7.00
2018-12-30T01:22:51.984Z,7.00
2018-12-30T01:25:20.687Z,7.00
2018-12-30T01:27:49.239Z,7.00
2018-12-30T01:30:17.826Z,7.10
2018-12-30T01:32:46.374Z,7.10
2018-12-30T01:35:15.130Z,7.10
2018-12-30T01:37:43.674Z,7.00
2018-12-30T01:40:12.330Z,7.00
2018-12-30T01:42:40.939Z,7.10
2018-12-30T01:45:10.255Z,7.10
2018-12-30T01:47:38.881Z,7.00
2018-12-30T01:50:07.465Z,7.00
2018-12-30T01:52:36.218Z,7.10
2018-12-30T01:55:05.791Z,7.10
2018-12-30T01:57:35.472Z,7.00
2018-12-30T02:00:05.386Z,7.10
2018-12-30T02:02:33.939Z,7.10
2018-12-30T02:05:02.746Z,7.10
2018-12-30T02:07:31.294Z,7.10
2018-12-30T02:09:59.878Z,7.20
2018-12-30T02:12:28.435Z,7.20
2018-12-30T02:14:57.146Z,7.30
2018-12-30T02:17:25.805Z,7.20
2018-12-30T02:19:54.346Z,7.20
2018-12-30T02:22:22.929Z,7.20
2018-12-30T02:24:51.494Z,7.20
2018-12-30T02:27:20.094Z,7.10
2018-12-30T02:29:48.690Z,7.20
2018-12-30T02:32:17.327Z,7.20
2018-12-30T02:34:48.704Z,7.20
2018-12-30T02:37:17.244Z,7.20
2018-12-30T02:39:45.824Z,7.20
2018-12-30T02:42:14.458Z,7.20
2018-12-30T02:44:43.299Z,7.30
2018-12-30T02:47:31.206Z,7.20
2018-12-30T02:50:20.657Z,7.20
2018-12-30T02:52:49.244Z,7.20
2018-12-30T02:55:17.834Z,7.30
2018-12-30T02:57:46.389Z,7.20
2018-12-30T03:00:15.346Z,7.20
2018-12-30T03:02:43.965Z,7.20
2018-12-30T03:05:12.770Z,7.20
2018-12-30T03:07:41.321Z,7.20
2018-12-30T03:10:09.923Z,7.20
2018-12-30T03:12:38.482Z,7.20
2018-12-30T03:15:26.553Z,7.20
2018-12-30T03:17:55.114Z,7.20
2018-12-30T03:20:23.698Z,7.20
2018-12-30T03:22:52.303Z,7.30
2018-12-30T03:25:20.868Z,7.30
2018-12-30T03:27:49.605Z,7.40
2018-12-30T03:30:18.270Z,7.40
2018-12-30T03:32:46.875Z,7.40
2018-12-30T03:35:15.434Z,7.40
2018-12-30T03:37:44.021Z,7.40
2018-12-30T03:40:12.572Z,7.40
2018-12-30T03:42:41.151Z,7.40
2018-12-30T03:45:09.798Z,7.50
2018-12-30T03:47:38.358Z,7.60
2018-12-30T03:50:07.065Z,7.60
2018-12-30T03:52:35.639Z,7.60
2018-12-30T03:55:04.750Z,7.60
2018-12-30T03:57:33.311Z,7.60
2018-12-30T04:00:01.997Z,7.60
2018-12-30T04:02:30.564Z,7.70
2018-12-30T04:04:59.182Z,7.70
2018-12-30T04:07:27.748Z,7.60
2018-12-30T04:09:56.342Z,7.60
2018-12-30T04:12:25.048Z,7.60
2018-12-30T04:14:53.703Z,7.70
2018-12-30T04:17:22.503Z,7.80
2018-12-30T04:19:51.155Z,7.70
2018-12-30T04:22:40.621Z,7.70
2018-12-30T04:25:09.253Z,7.70
2018-12-30T04:27:37.846Z,7.70
2018-12-30T04:30:07.255Z,7.80
2018-12-30T04:32:35.835Z,7.80
2018-12-30T04:35:05.522Z,7.80
2018-12-30T04:37:34.110Z,7.90
2018-12-30T04:40:02.759Z,7.90
2018-12-30T04:42:31.471Z,7.80
2018-12-30T04:45:00.066Z,7.90
2018-12-30T04:47:28.666Z,7.90
2018-12-30T04:49:57.221Z,7.90
2018-12-30T04:52:26.265Z,7.90
2018-12-30T04:54:55.050Z,7.90
2018-12-30T04:57:23.711Z,7.90
2018-12-30T04:59:52.282Z,7.90
2018-12-30T05:02:29.340Z,7.90
2018-12-30T05:04:57.894Z,7.90
2018-12-30T05:07:26.478Z,7.90
2018-12-30T05:09:55.267Z,7.90
2018-12-30T05:12:23.985Z,7.90
2018-12-30T05:14:52.582Z,7.90
2018-12-30T05:17:21.122Z,7.90
2018-12-30T05:19:49.733Z,7.80
2018-12-30T05:22:18.563Z,7.90
2018-12-30T05:24:47.112Z,7.90
2018-12-30T05:27:15.809Z,7.90
2018-12-30T05:29:44.473Z,7.80
2018-12-30T05:32:13.205Z,7.90
2018-12-30T05:34:41.795Z,7.90
2018-12-30T05:37:10.379Z,7.80
2018-12-30T05:39:38.988Z,7.80
2018-12-30T05:42:07.606Z,7.80
2018-12-30T05:44:36.178Z,7.90
2018-12-30T05:47:06.973Z,7.90
2018-12-30T05:49:35.622Z,8.00
2018-12-30T05:52:04.169Z,7.90
2018-12-30T05:54:32.750Z,7.90
2018-12-30T05:57:01.374Z,8.00
2018-12-30T05:59:30.097Z,7.90
2018-12-30T06:01:58.834Z,7.90
2018-12-30T06:04:27.496Z,8.00
2018-12-30T06:06:56.117Z,8.00
2018-12-30T06:09:24.706Z,8.00
2018-12-30T06:11:53.287Z,8.00
2018-12-30T06:14:21.903Z,8.10
2018-12-30T06:16:50.489Z,8.20
2018-12-30T06:19:19.097Z,8.10
2018-12-30T06:21:47.625Z,8.20
2018-12-30T06:24:16.208Z,8.20
2018-12-30T06:26:44.849Z,8.10
2018-12-30T06:29:13.613Z,8.20
2018-12-30T06:31:42.211Z,8.30
2018-12-30T06:34:11.043Z,8.30
2018-12-30T06:36:39.743Z,8.30
2018-12-30T06:39:08.392Z,8.30
2018-12-30T06:41:36.948Z,8.20
2018-12-30T06:44:05.518Z,8.20
2018-12-30T06:46:34.354Z,8.20
2018-12-30T06:49:02.935Z,8.20
2018-12-30T06:51:31.519Z,8.30
2018-12-30T06:54:00.107Z,8.30
2018-12-30T06:56:28.720Z,8.30
2018-12-30T06:58:57.274Z,8.30
2018-12-30T07:01:25.855Z,8.30
2018-12-30T07:03:54.438Z,8.30
2018-12-30T07:06:23.214Z,8.30
2018-12-30T07:09:11.114Z,8.30
2018-12-30T07:11:39.706Z,8.30
2018-12-30T07:14:08.701Z,8.30
2018-12-30T07:16:37.534Z,8.30
2018-12-30T07:19:06.119Z,8.30
2018-12-30T07:21:34.748Z,8.30
2018-12-30T07:24:03.414Z,8.30
2018-12-30T07:26:31.972Z,8.30
2018-12-30T07:29:00.563Z,8.30
2018-12-30T07:31:29.123Z,8.40
2018-12-30T07:33:57.705Z,8.40
2018-12-30T07:36:26.258Z,8.30
2018-12-30T07:38:54.771Z,8.30
2018-12-30T07:41:23.330Z,8.30
2018-12-30T07:43:51.939Z,8.30
2018-12-30T07:46:20.524Z,8.40
2018-12-30T07:48:49.336Z,8.30
2018-12-30T07:51:18.233Z,8.30
2018-12-30T07:53:46.815Z,8.30
2018-12-30T07:56:15.362Z,8.20
2018-12-30T07:58:44.046Z,8.30
2018-12-30T08:01:12.583Z,8.30
2018-12-30T08:03:41.130Z,8.30
2018-12-30T08:06:09.902Z,8.30
2018-12-30T08:08:38.483Z,8.40
2018-12-30T08:11:07.210Z,8.40
2018-12-30T08:13:35.810Z,8.40
2018-12-30T08:16:04.410Z,8.40
2018-12-30T08:18:32.965Z,8.40
2018-12-30T08:21:01.670Z,8.40
2018-12-30T08:23:30.253Z,8.40
2018-12-30T08:25:58.847Z,8.40
2018-12-30T08:28:27.534Z,8.40
2018-12-30T08:30:56.086Z,8.40
2018-12-30T08:33:24.790Z,8.40
2018-12-30T08:35:53.406Z,8.30
2018-12-30T08:38:22.006Z,8.20
2018-12-30T08:40:50.664Z,8.30
2018-12-30T08:43:19.363Z,8.40
2018-12-30T08:45:47.931Z,8.40
2018-12-30T08:48:16.717Z,8.40
2018-12-30T08:50:45.390Z,8.50
2018-12-30T08:53:14.033Z,8.50
2018-12-30T08:55:43.270Z,8.40
2018-12-30T08:58:11.955Z,8.50
2018-12-30T09:00:40.602Z,8.50
2018-12-30T09:03:09.238Z,8.50
2018-12-30T09:05:37.818Z,8.60
2018-12-30T09:08:06.402Z,8.50
2018-12-30T09:10:34.966Z,8.50
2018-12-30T09:13:03.838Z,8.50
2018-12-30T09:15:32.419Z,8.60
2018-12-30T09:18:06.669Z,8.60
2018-12-30T09:20:38.811Z,8.50
2018-12-30T09:23:07.380Z,8.50
2018-12-30T09:25:36.098Z,8.50
2018-12-30T09:28:04.647Z,8.50
2018-12-30T09:30:33.235Z,8.50
2018-12-30T09:33:04.724Z,8.50
2018-12-30T09:35:35.122Z,8.50
2018-12-30T09:38:03.668Z,8.60
2018-12-30T09:40:32.998Z,8.60
2018-12-30T09:43:01.586Z,8.60
2018-12-30T09:45:30.233Z,8.60
2018-12-30T09:47:58.914Z,8.70
2018-12-30T09:50:27.605Z,8.60
2018-12-30T09:52:56.292Z,8.70
2018-12-30T09:55:25.264Z,8.70
2018-12-30T09:57:53.772Z,8.70
2018-12-30T10:00:24.389Z,8.80
2018-12-30T10:02:53.059Z,8.80
2018-12-30T10:05:21.830Z,8.70
2018-12-30T10:07:51.817Z,8.80
2018-12-30T10:10:20.407Z,8.70
2018-12-30T10:12:49.377Z,8.80
2018-12-30T10:15:17.955Z,8.70
2018-12-30T10:17:48.495Z,8.70
2018-12-30T10:20:17.110Z,8.70
2018-12-30T10:22:47.643Z,8.80
2018-12-30T10:25:16.132Z,8.80
2018-12-30T10:27:44.948Z,8.80
2018-12-30T10:30:13.612Z,8.90
2018-12-30T10:32:42.182Z,8.90
2018-12-30T10:35:10.903Z,8.90
2018-12-30T10:37:39.468Z,8.90
2018-12-30T10:40:10.123Z,8.90
2018-12-30T10:42:38.770Z,9.00
2018-12-30T10:45:07.552Z,9.00
2018-12-30T10:47:36.104Z,9.00
2018-12-30T10:50:05.796Z,9.00
2018-12-30T10:52:34.575Z,9.00
2018-12-30T10:55:03.881Z,9.10
2018-12-30T10:57:32.568Z,9.00
2018-12-30T11:00:01.208Z,9.00
2018-12-30T11:02:30.058Z,9.00
2018-12-30T11:04:58.906Z,9.00
2018-12-30T11:07:27.925Z,9.00
2018-12-30T11:09:56.566Z,9.00
2018-12-30T11:12:25.126Z,9.00
2018-12-30T11:14:53.820Z,9.00
2018-12-30T11:17:24.518Z,9.00
2018-12-30T11:19:53.782Z,9.00
2018-12-30T11:22:22.562Z,9.00
2018-12-30T11:24:51.151Z,9.10
2018-12-30T11:27:19.811Z,9.10
2018-12-30T11:29:48.483Z,9.10
2018-12-30T11:32:17.749Z,9.20
2018-12-30T11:34:46.298Z,9.20
2018-12-30T11:37:15.158Z,9.20
2018-12-30T11:39:43.724Z,9.30
2018-12-30T11:42:12.313Z,9.30
2018-12-30T11:44:40.876Z,9.30
2018-12-30T11:47:09.543Z,9.30
2018-12-30T11:49:38.214Z,9.30
2018-12-30T11:52:06.694Z,9.30
2018-12-30T11:54:35.387Z,9.40
2018-12-30T11:57:04.163Z,9.40
2018-12-30T11:59:32.794Z,9.50
2018-12-30T12:02:01.391Z,9.50
2018-12-30T12:04:30.003Z,9.50
2018-12-30T12:07:00.134Z,9.40
2018-12-30T12:09:28.735Z,9.40
2018-12-30T12:12:00.147Z,9.40
2018-12-30T12:14:28.823Z,9.40
2018-12-30T12:16:57.839Z,9.30
2018-12-30T12:19:26.437Z,9.30
2018-12-30T12:21:54.982Z,9.20
2018-12-30T12:24:24.549Z,9.20
2018-12-30T12:26:53.361Z,9.20
2018-12-30T12:29:22.089Z,9.10
2018-12-30T12:31:50.777Z,9.10
2018-12-30T12:34:19.386Z,9.10
2018-12-30T12:36:47.956Z,9.10
2018-12-30T12:39:16.590Z,9.20
2018-12-30T12:41:45.156Z,9.20
2018-12-30T12:44:13.751Z,9.30
2018-12-30T12:46:42.444Z,9.30
2018-12-30T12:49:11.152Z,9.30
2018-12-30T12:51:39.773Z,9.30
2018-12-30T12:54:08.405Z,9.30
2018-12-30T12:56:37.028Z,9.30
2018-12-30T12:59:05.752Z,9.30
2018-12-30T13:01:34.314Z,9.30
2018-12-30T13:04:03.232Z,9.30
2018-12-30T13:06:31.779Z,9.30
2018-12-30T13:09:00.366Z,9.30
2018-12-30T13:11:29.002Z,9.30
2018-12-30T13:13:57.633Z,9.30
2018-12-30T13:16:26.441Z,9.30
2018-12-30T13:18:55.041Z,9.30
2018-12-30T13:21:23.670Z,9.40
2018-12-30T13:23:52.258Z,9.30
2018-12-30T13:26:20.925Z,9.30
2018-12-30T13:28:49.602Z,9.30
2018-12-30T13:31:18.188Z,9.30
2018-12-30T13:33:48.527Z,9.30
2018-12-30T13:36:17.488Z,9.30
2018-12-30T13:38:46.117Z,9.30
2018-12-30T13:41:14.779Z,9.30
2018-12-30T13:43:43.333Z,9.30
2018-12-30T13:46:11.906Z,9.20
2018-12-30T13:48:40.538Z,9.20
2018-12-30T13:51:09.386Z,9.20
2018-12-30T13:53:38.035Z,9.20
2018-12-30T13:56:06.645Z,9.20
2018-12-30T13:58:35.252Z,9.20
2018-12-30T14:01:03.859Z,9.20
2018-12-30T14:03:32.398Z,9.20
2018-12-30T14:06:00.895Z,9.20
2018-12-30T14:08:29.466Z,9.20
2018-12-30T14:10:58.318Z,9.20
2018-12-30T14:13:27.063Z,9.20
2018-12-30T14:15:55.898Z,9.20
2018-12-30T14:18:24.706Z,9.20
2018-12-30T14:20:53.292Z,9.30
2018-12-30T14:23:22.074Z,9.30
2018-12-30T14:25:50.742Z,9.40
2018-12-30T14:28:19.616Z,9.30
2018-12-30T14:30:48.615Z,9.30
2018-12-30T14:33:18.057Z,9.30
2018-12-30T14:35:46.670Z,9.30
2018-12-30T14:38:15.595Z,9.20
2018-12-30T14:40:44.218Z,9.20
2018-12-30T14:43:12.827Z,9.20
2018-12-30T14:45:41.572Z,9.30
2018-12-30T14:48:10.683Z,9.30
2018-12-30T14:50:39.254Z,9.20
2018-12-30T14:53:07.798Z,9.30
2018-12-30T14:55:36.402Z,9.30
2018-12-30T14:58:04.987Z,9.30
2018-12-30T15:00:33.588Z,9.20
2018-12-30T15:03:05.090Z,9.30
2018-12-30T15:05:33.647Z,9.20
2018-12-30T15:08:02.289Z,9.30
2018-12-30T15:10:31.099Z,9.30
2018-12-30T15:12:59.701Z,9.30
2018-12-30T15:15:28.595Z,9.30
2018-12-30T15:17:57.259Z,9.20
2018-12-30T15:20:25.846Z,9.20
2018-12-30T15:23:13.978Z,9.20
2018-12-30T15:25:42.579Z,9.20
2018-12-30T15:28:11.839Z,9.10
2018-12-30T15:30:40.610Z,9.10
2018-12-30T15:33:09.250Z,9.10
2018-12-30T15:35:38.490Z,9.10
2018-12-30T15:38:07.034Z,9.10
2018-12-30T15:40:35.758Z,9.20
2018-12-30T15:43:04.305Z,9.20
2018-12-30T15:45:32.957Z,9.20
2018-12-30T15:48:01.594Z,9.20
2018-12-30T15:50:30.223Z,9.20
2018-12-30T15:52:58.742Z,9.10
2018-12-30T15:55:27.330Z,9.10
2018-12-30T15:57:55.911Z,9.10
2018-12-30T16:00:24.575Z,9.00
2018-12-30T16:02:53.394Z,9.10
2018-12-30T16:05:21.970Z,9.00
2018-12-30T16:07:50.587Z,9.00
2018-12-30T16:10:19.197Z,9.10
2018-12-30T16:12:47.784Z,9.10
2018-12-30T16:15:16.470Z,9.00
2018-12-30T16:17:45.098Z,9.00
2018-12-30T16:20:13.678Z,9.00
2018-12-30T16:22:42.367Z,8.90
2018-12-30T16:25:10.907Z,9.00
2018-12-30T16:27:39.563Z,8.90
2018-12-30T16:30:09.870Z,9.00
2018-12-30T16:32:38.502Z,9.00
2018-12-30T16:35:07.137Z,9.00
2018-12-30T16:37:35.750Z,8.90
2018-12-30T16:40:05.738Z,8.90
2018-12-30T16:42:34.457Z,8.90
2018-12-30T16:45:03.060Z,9.00
2018-12-30T16:47:31.805Z,9.00
2018-12-30T16:50:01.671Z,9.00
2018-12-30T16:52:30.325Z,8.90
2018-12-30T16:54:59.134Z,8.90
2018-12-30T16:57:27.770Z,8.90
2018-12-30T16:59:56.458Z,9.00
2018-12-30T17:02:25.095Z,9.00
2018-12-30T17:04:53.806Z,9.00
2018-12-30T17:07:22.445Z,9.00
2018-12-30T17:09:51.102Z,9.00
2018-12-30T17:12:19.946Z,9.00
2018-12-30T17:14:48.538Z,9.10
2018-12-30T17:17:17.317Z,9.10
2018-12-30T17:19:47.403Z,9.10
2018-12-30T17:22:16.073Z,9.10
2018-12-30T17:24:45.051Z,9.10
2018-12-30T17:27:13.703Z,9.00
2018-12-30T17:29:42.294Z,9.10
2018-12-30T17:32:10.982Z,9.10
2018-12-30T17:34:39.639Z,9.00
2018-12-30T17:37:08.236Z,9.00
2018-12-30T17:39:36.892Z,8.90
2018-12-30T17:42:05.525Z,9.00
2018-12-30T17:44:34.164Z,9.00
2018-12-30T17:47:02.835Z,8.90
2018-12-30T17:49:31.482Z,8.90
2018-12-30T17:52:00.041Z,8.90
2018-12-30T17:54:28.732Z,8.90
2018-12-30T17:56:57.337Z,8.90
2018-12-30T17:59:26.108Z,9.00
2018-12-30T18:01:54.725Z,9.00
2018-12-30T18:04:23.498Z,9.00
2018-12-30T18:06:52.102Z,8.90
2018-12-30T18:09:40.021Z,9.00
2018-12-30T18:12:08.635Z,9.00
2018-12-30T18:14:37.207Z,8.90
2018-12-30T18:17:25.248Z,8.90
2018-12-30T18:19:53.816Z,8.90
2018-12-30T18:22:22.665Z,8.90
2018-12-30T18:24:51.267Z,9.00
2018-12-30T18:27:22.281Z,8.90
2018-12-30T18:29:50.909Z,8.90
2018-12-30T18:32:19.474Z,8.90
2018-12-30T18:34:48.029Z,8.90
2018-12-30T18:37:16.643Z,8.90
2018-12-30T18:39:45.186Z,8.90
2018-12-30T18:42:13.851Z,8.80
2018-12-30T18:44:42.499Z,8.90
2018-12-30T18:47:11.083Z,8.90
2018-12-30T18:49:41.355Z,8.90
2018-12-30T18:52:09.930Z,8.90
2018-12-30T18:54:38.577Z,8.90
2018-12-30T18:57:07.143Z,8.90
2018-12-30T18:59:35.736Z,8.90
2018-12-30T19:02:04.525Z,8.90
2018-12-30T19:04:33.189Z,8.90
2018-12-30T19:07:01.770Z,8.90
2018-12-30T19:09:32.239Z,8.90
2018-12-30T19:12:00.781Z,8.90
2018-12-30T19:14:29.878Z,8.90
2018-12-30T19:16:58.462Z,9.00
2018-12-30T19:19:27.110Z,9.00
2018-12-30T19:21:55.704Z,9.00
2018-12-30T19:24:24.335Z,9.00
2018-12-30T19:26:52.922Z,9.00
2018-12-30T19:29:21.958Z,9.00
2018-12-30T19:31:50.513Z,8.90
2018-12-30T19:34:19.127Z,8.90
2018-12-30T19:36:47.814Z,8.90
2018-12-30T19:39:35.732Z,8.90
2018-12-30T19:42:04.371Z,8.90
2018-12-30T19:44:33.082Z,8.90
2018-12-30T19:47:01.741Z,8.90
2018-12-30T19:49:31.020Z,8.90
2018-12-30T19:51:59.741Z,8.90
2018-12-30T19:54:28.598Z,8.90
2018-12-30T19:56:57.444Z,8.90
2018-12-30T19:59:26.307Z,8.90
2018-12-30T20:01:54.790Z,8.80
2018-12-30T20:04:23.374Z,8.80
2018-12-30T20:06:52.003Z,8.80
2018-12-30T20:09:20.720Z,8.80
2018-12-30T20:11:49.293Z,8.80
2018-12-30T20:14:17.810Z,8.80
2018-12-30T20:16:46.689Z,8.80
2018-12-30T20:19:15.285Z,8.80
2018-12-30T20:21:43.842Z,8.70
2018-12-30T20:24:12.428Z,8.70
2018-12-30T20:26:40.983Z,8.70
2018-12-30T20:29:09.597Z,8.80
2018-12-30T20:31:38.154Z,8.70
2018-12-30T20:34:06.764Z,8.70
2018-12-30T20:36:35.691Z,8.70
2018-12-30T20:39:06.622Z,8.60
2018-12-30T20:41:37.102Z,8.60
2018-12-30T20:44:05.506Z,8.70
2018-12-30T20:46:34.069Z,8.60
2018-12-30T20:49:02.630Z,8.60
2018-12-30T20:51:31.269Z,8.60
2018-12-30T20:53:59.874Z,8.50
2018-12-30T20:56:28.430Z,8.60
2018-12-30T20:58:57.113Z,8.60
2018-12-30T21:01:25.776Z,8.60
2018-12-30T21:03:54.313Z,8.60
2018-12-30T21:06:22.999Z,8.50
2018-12-30T21:08:51.672Z,8.50
2018-12-30T21:11:20.272Z,8.50
2018-12-30T21:13:48.883Z,8.40
2018-12-30T21:16:17.473Z,8.40
2018-12-30T21:18:46.178Z,8.40
2018-12-30T21:21:14.992Z,8.40
2018-12-30T21:23:43.536Z,8.50
2018-12-30T21:26:12.083Z,8.50
2018-12-30T21:28:41.023Z,8.50
2018-12-30T21:31:09.662Z,8.50
2018-12-30T21:33:40.042Z,8.50
2018-12-30T21:36:08.526Z,8.40
2018-12-30T21:38:37.354Z,8.50
2018-12-30T21:41:06.030Z,8.50
2018-12-30T21:43:35.199Z,8.50
2018-12-30T21:46:03.727Z,8.50
2018-12-30T21:48:32.415Z,8.40
2018-12-30T21:51:01.050Z,8.40
2018-12-30T21:53:29.635Z,8.40
2018-12-30T21:55:59.856Z,8.30
2018-12-30T21:58:28.493Z,8.30
2018-12-30T22:00:57.178Z,8.30
2018-12-30T22:03:25.741Z,8.40
2018-12-30T22:05:54.322Z,8.30
2018-12-30T22:08:22.987Z,8.40
2018-12-30T22:10:51.589Z,8.30
2018-12-30T22:13:20.235Z,8.40
2018-12-30T22:15:49.086Z,8.40
2018-12-30T22:18:19.556Z,8.30
2018-12-30T22:20:48.107Z,8.40
2018-12-30T22:23:16.671Z,8.40
2018-12-30T22:25:45.234Z,8.30
2018-12-30T22:28:13.830Z,8.30
2018-12-30T22:30:48.178Z,8.30
2018-12-30T22:33:16.887Z,8.30
2018-12-30T22:35:45.501Z,8.30
2018-12-30T22:38:14.155Z,8.40
2018-12-30T22:40:42.710Z,8.40
2018-12-30T22:43:11.393Z,8.40
2018-12-30T22:45:39.943Z,8.50
2018-12-30T22:48:08.546Z,8.50
2018-12-30T22:50:45.319Z,8.50
2018-12-30T22:53:13.938Z,8.40
2018-12-30T22:55:47.955Z,8.30
2018-12-30T22:58:16.503Z,8.30
2018-12-30T23:00:52.757Z,8.40
2018-12-30T23:03:22.846Z,8.40
2018-12-30T23:05:51.522Z,8.50
2018-12-30T23:08:39.475Z,8.50
2018-12-30T23:11:08.119Z,8.50
2018-12-30T23:13:36.702Z,8.50
2018-12-30T23:16:05.333Z,8.50
2018-12-30T23:18:33.916Z,8.40
2018-12-30T23:21:02.558Z,8.50
2018-12-30T23:23:31.177Z,8.40
2018-12-30T23:25:59.970Z,8.50
2018-12-30T23:28:28.648Z,8.50
2018-12-30T23:30:57.197Z,8.60
2018-12-30T23:33:25.787Z,8.50
2018-12-30T23:35:54.350Z,8.50
2018-12-30T23:38:23.256Z,8.50
2018-12-30T23:40:51.873Z,8.50
2018-12-30T23:43:20.527Z,8.50
2018-12-30T23:45:49.607Z,8.40
2018-12-30T23:48:18.212Z,8.40
2018-12-30T23:50:47.315Z,8.40
2018-12-30T23:53:15.871Z,8.40
2018-12-30T23:55:44.525Z,8.40
2018-12-30T23:58:13.103Z,8.40
